Time;durP1;ratioP1;P1;durP2;ratioP2;P2;SDS_P1;SDS_P2;PMS_P1;PMS_P2;Temp;Humidity;BMP_temperature;BMP_pressure;BME280_temperature;BME280_humidity;BME280_pressure;Samples;Min_cycle;Max_cycle;Signal;HPM_P1;HPM_P2
2022/10/13 00:00:54;;;;;;;225.23;15.75;;;7.30;99.90;;;;;;5042931;28;20033;-65
2022/10/13 00:03:20;;;;;;;24.95;12.32;;;7.20;99.90;;;;;;5031003;28;20043;-64
2022/10/13 00:05:48;;;;;;;23.52;11.50;;;7.10;99.90;;;;;;5045474;28;20033;-64
2022/10/13 00:08:20;;;;;;;22.27;11.77;;;7.00;99.90;;;;;;5049306;28;20100;-64
2022/10/13 00:10:48;;;;;;;22.38;11.93;;;6.90;99.90;;;;;;5044665;28;20021;-63
2022/10/13 00:13:14;;;;;;;25.73;12.48;;;7.00;99.90;;;;;;5049225;28;20025;-65
2022/10/13 00:15:42;;;;;;;20.70;11.52;;;7.00;99.90;;;;;;5048845;28;20051;-64
2022/10/13 00:18:08;;;;;;;25.27;11.45;;;7.10;99.90;;;;;;5049769;28;20105;-65
2022/10/13 00:20:35;;;;;;;112.65;14.07;;;7.10;99.90;;;;;;5047840;28;20112;-64
2022/10/13 00:23:01;;;;;;;61.65;13.40;;;7.00;99.90;;;;;;5050020;28;20049;-67
2022/10/13 00:25:26;;;;;;;24.80;11.35;;;6.90;99.90;;;;;;5049109;28;20036;-64
2022/10/13 00:27:52;;;;;;;25.13;11.48;;;6.90;99.90;;;;;;5061942;28;20124;-64
2022/10/13 00:30:18;;;;;;;25.17;11.32;;;6.80;99.90;;;;;;5032361;28;20436;-64
2022/10/13 00:32:43;;;;;;;28.65;13.02;;;6.80;99.90;;;;;;5035133;28;20532;-64
2022/10/13 00:35:09;;;;;;;41.70;13.02;;;6.90;99.90;;;;;;5045781;28;20033;-63
2022/10/13 00:37:35;;;;;;;22.90;12.05;;;6.90;99.90;;;;;;5050262;28;20074;-64
2022/10/13 00:40:01;;;;;;;23.50;11.90;;;6.90;99.90;;;;;;5049052;28;20041;-64
2022/10/13 00:42:26;;;;;;;22.73;11.85;;;6.90;99.90;;;;;;5048266;28;20037;-63
2022/10/13 00:44:58;;;;;;;24.08;11.48;;;6.90;99.90;;;;;;5041406;28;20550;-65
2022/10/13 00:47:27;;;;;;;23.77;11.85;;;6.90;99.90;;;;;;5031289;28;20033;-63
2022/10/13 00:49:54;;;;;;;23.35;12.32;;;6.90;99.90;;;;;;5049218;28;20029;-64
2022/10/13 00:52:21;;;;;;;21.35;10.75;;;6.90;99.90;;;;;;5048611;28;20037;-65
2022/10/13 00:54:48;;;;;;;20.98;10.75;;;6.90;99.90;;;;;;5048428;28;20041;-64
2022/10/13 00:57:14;;;;;;;23.98;11.00;;;6.90;99.90;;;;;;5047300;28;20362;-64
2022/10/13 00:59:40;;;;;;;24.30;11.77;;;6.90;99.90;;;;;;5048819;28;20108;-64
2022/10/13 01:02:06;;;;;;;23.33;11.55;;;6.90;99.90;;;;;;5043591;28;20765;-66
2022/10/13 01:04:45;;;;;;;21.25;10.68;;;6.90;99.90;;;;;;5048709;28;20033;-64
2022/10/13 01:07:12;;;;;;;17.30;9.30;;;7.00;99.90;;;;;;5040347;28;20385;-63
2022/10/13 01:09:37;;;;;;;22.08;9.65;;;6.90;99.90;;;;;;5043225;28;20439;-65
2022/10/13 01:12:27;;;;;;;17.98;9.50;;;6.90;99.90;;;;;;5048888;28;20029;-66
2022/10/13 01:15:14;;;;;;;22.37;10.20;;;6.90;99.90;;;;;;5046216;28;20078;-64
2022/10/13 01:17:58;;;;;;;29.48;10.20;;;7.00;99.90;;;;;;5047204;28;20264;-65
2022/10/13 01:20:42;;;;;;;31.05;9.65;;;6.90;99.90;;;;;;5047519;28;20669;-63
2022/10/13 01:23:43;;;;;;;29.27;10.23;;;6.90;99.90;;;;;;5044317;28;20055;-65
2022/10/13 01:26:35;;;;;;;38.45;11.43;;;6.80;99.90;;;;;;5043705;28;20068;-64
2022/10/13 01:29:16;;;;;;;22.70;11.43;;;6.90;99.90;;;;;;5044172;28;20233;-64
2022/10/13 01:32:01;;;;;;;28.42;12.05;;;6.80;99.90;;;;;;5036878;28;20176;-64
2022/10/13 01:34:39;;;;;;;24.55;11.77;;;6.80;99.90;;;;;;5045537;28;20505;-64
2022/10/13 01:37:10;;;;;;;24.55;11.35;;;6.80;99.90;;;;;;5039351;28;20112;-67
2022/10/13 01:39:43;;;;;;;32.80;11.93;;;6.80;99.90;;;;;;5045694;28;20099;-64
2022/10/13 01:42:24;;;;;;;27.23;12.18;;;6.80;99.90;;;;;;5046678;28;20044;-66
2022/10/13 01:45:00;;;;;;;34.30;13.45;;;6.80;99.90;;;;;;5034821;28;20098;-64
2022/10/13 01:47:28;;;;;;;33.28;12.93;;;6.90;99.90;;;;;;5046359;28;20063;-64
2022/10/13 01:49:55;;;;;;;39.00;12.80;;;6.90;99.90;;;;;;5042530;28;20064;-63
2022/10/13 01:52:25;;;;;;;41.40;12.75;;;7.00;99.90;;;;;;5048731;28;20059;-64
2022/10/13 01:54:52;;;;;;;25.60;11.77;;;7.10;99.90;;;;;;5029473;28;20112;-63
2022/10/13 01:57:37;;;;;;;33.33;12.38;;;7.10;99.90;;;;;;5061457;28;20039;-64
2022/10/13 02:00:08;;;;;;;34.63;12.70;;;7.10;99.90;;;;;;5031325;28;20561;-64
2022/10/13 02:03:06;;;;;;;40.67;13.18;;;7.10;99.90;;;;;;5048893;28;20102;-63
2022/10/13 02:05:48;;;;;;;41.25;14.75;;;7.00;99.90;;;;;;5048281;28;20075;-64
2022/10/13 02:08:35;;;;;;;45.28;13.10;;;7.00;99.90;;;;;;5056540;28;20029;-64
2022/10/13 02:11:08;;;;;;;51.42;11.68;;;7.00;99.90;;;;;;5037070;28;20043;-63
2022/10/13 02:13:37;;;;;;;34.20;12.10;;;6.90;99.90;;;;;;5052218;28;20477;-62
2022/10/13 02:16:02;;;;;;;30.15;11.85;;;6.90;99.90;;;;;;5049622;28;20024;-64
2022/10/13 02:18:32;;;;;;;36.83;11.70;;;6.90;99.90;;;;;;5052168;28;20021;-64
2022/10/13 02:20:58;;;;;;;24.55;11.30;;;6.90;99.90;;;;;;5041852;28;20451;-63
2022/10/13 02:23:24;;;;;;;20.50;10.38;;;6.90;99.90;;;;;;5031868;28;20397;-64
2022/10/13 02:25:50;;;;;;;81.47;13.32;;;6.90;99.90;;;;;;5042395;28;20037;-63
2022/10/13 02:28:16;;;;;;;35.42;12.75;;;6.90;99.90;;;;;;5061995;28;20055;-64
2022/10/13 02:30:44;;;;;;;32.88;11.68;;;6.90;99.90;;;;;;5049715;28;20110;-64
2022/10/13 02:33:11;;;;;;;26.95;12.20;;;6.90;99.90;;;;;;5052350;28;20037;-65
2022/10/13 02:35:37;;;;;;;35.50;12.23;;;6.80;99.90;;;;;;5050843;28;20033;-64
2022/10/13 02:38:04;;;;;;;53.20;12.95;;;6.80;99.90;;;;;;5050299;28;20044;-64
2022/10/13 02:40:29;;;;;;;30.58;13.20;;;6.80;99.90;;;;;;5049360;28;20112;-64
2022/10/13 02:42:55;;;;;;;33.72;12.10;;;6.70;99.90;;;;;;5050719;28;20454;-64
2022/10/13 02:45:21;;;;;;;26.27;11.73;;;6.70;99.90;;;;;;5048785;28;20195;-64
2022/10/13 02:47:47;;;;;;;33.22;12.40;;;6.70;99.90;;;;;;5065395;28;20040;-64
2022/10/13 02:50:13;;;;;;;30.75;11.15;;;6.70;99.90;;;;;;5056923;28;20025;-67
2022/10/13 02:52:38;;;;;;;44.08;11.52;;;6.70;99.90;;;;;;5048862;28;20091;-64
2022/10/13 02:55:05;;;;;;;26.15;12.07;;;6.60;99.90;;;;;;5050940;28;20082;-64
2022/10/13 02:57:31;;;;;;;35.95;12.82;;;6.50;99.90;;;;;;5048062;28;20549;-63
2022/10/13 02:59:56;;;;;;;32.42;13.95;;;6.50;99.90;;;;;;5052472;28;20108;-64
2022/10/13 03:02:22;;;;;;;72.15;14.13;;;6.50;99.90;;;;;;5048208;28;20043;-64
2022/10/13 03:04:48;;;;;;;60.47;13.98;;;6.60;99.90;;;;;;5050734;28;20397;-64
2022/10/13 03:07:14;;;;;;;52.15;13.55;;;6.60;99.90;;;;;;5048250;28;20103;-67
2022/10/13 03:09:40;;;;;;;31.30;12.93;;;6.60;99.90;;;;;;5050374;28;20037;-64
2022/10/13 03:12:06;;;;;;;61.20;12.55;;;6.60;99.90;;;;;;5045675;28;20835;-64
2022/10/13 03:14:32;;;;;;;82.00;13.70;;;6.60;99.90;;;;;;5050113;28;20068;-64
2022/10/13 03:16:58;;;;;;;40.88;13.38;;;6.60;99.90;;;;;;5047553;28;20060;-62
2022/10/13 03:19:23;;;;;;;56.13;12.23;;;6.60;99.90;;;;;;5049899;28;20025;-65
2022/10/13 03:21:49;;;;;;;45.88;13.23;;;6.70;99.90;;;;;;5041896;28;20075;-64
2022/10/13 03:24:14;;;;;;;45.47;13.32;;;6.70;99.90;;;;;;5049991;28;20052;-66
2022/10/13 03:26:40;;;;;;;35.75;12.88;;;6.80;99.90;;;;;;5049031;28;20033;-66
2022/10/13 03:29:06;;;;;;;30.55;13.15;;;6.90;99.90;;;;;;5049628;28;20045;-64
2022/10/13 03:31:31;;;;;;;31.17;12.18;;;6.90;99.90;;;;;;5049711;28;20036;-64
2022/10/13 03:33:57;;;;;;;29.25;13.43;;;6.90;99.90;;;;;;5050351;28;20033;-64
2022/10/13 03:36:22;;;;;;;38.80;15.88;;;6.90;99.90;;;;;;5049634;28;20037;-64
2022/10/13 03:38:48;;;;;;;41.70;18.38;;;7.00;99.90;;;;;;5051781;28;20037;-64
2022/10/13 03:41:16;;;;;;;44.90;17.75;;;7.10;99.90;;;;;;5050049;28;20037;-67
2022/10/13 03:43:43;;;;;;;47.70;15.63;;;7.20;99.90;;;;;;5050733;28;20048;-63
2022/10/13 03:46:12;;;;;;;28.33;13.15;;;7.20;99.90;;;;;;5048961;28;20421;-64
2022/10/13 03:48:38;;;;;;;38.47;12.88;;;7.30;99.90;;;;;;5042961;28;20025;-64
2022/10/13 03:51:11;;;;;;;31.25;13.20;;;7.30;99.90;;;;;;5031430;28;20036;-63
2022/10/13 03:53:37;;;;;;;32.03;12.75;;;7.30;99.90;;;;;;5040205;28;20056;-64
2022/10/13 03:56:04;;;;;;;32.03;14.35;;;7.30;99.90;;;;;;5051512;28;20032;-64
2022/10/13 03:58:30;;;;;;;31.08;13.77;;;7.40;99.90;;;;;;5041940;28;20520;-64
2022/10/13 04:00:56;;;;;;;29.58;13.75;;;7.40;99.90;;;;;;5050214;28;20045;-64
2022/10/13 04:03:23;;;;;;;35.63;14.23;;;7.50;99.90;;;;;;5040944;28;20037;-64
2022/10/13 04:05:49;;;;;;;29.73;13.07;;;7.50;99.90;;;;;;5043999;28;20021;-65
2022/10/13 04:08:15;;;;;;;29.73;13.00;;;7.60;99.90;;;;;;5036176;28;20032;-66
2022/10/13 04:10:41;;;;;;;30.05;13.75;;;7.60;99.90;;;;;;5044706;28;20537;-63
2022/10/13 04:13:07;;;;;;;32.33;12.43;;;7.60;99.90;;;;;;5030511;28;20167;-64
2022/10/13 04:15:37;;;;;;;34.85;12.85;;;7.60;99.90;;;;;;5033523;28;20425;-63
2022/10/13 04:18:04;;;;;;;32.72;14.20;;;7.60;99.90;;;;;;5042197;28;20041;-67
2022/10/13 04:20:30;;;;;;;34.58;14.35;;;7.70;99.90;;;;;;5043329;28;20035;-64
2022/10/13 04:22:55;;;;;;;31.60;12.90;;;7.70;99.90;;;;;;5035766;28;20049;-64
2022/10/13 04:25:21;;;;;;;29.52;13.40;;;7.70;99.90;;;;;;5068396;28;20039;-66
2022/10/13 04:27:47;;;;;;;29.30;13.32;;;7.70;99.90;;;;;;5032322;28;20096;-64
2022/10/13 04:30:13;;;;;;;43.47;16.00;;;7.70;99.90;;;;;;5047839;28;20185;-64
2022/10/13 04:32:39;;;;;;;48.75;18.77;;;7.80;99.90;;;;;;5048337;28;20543;-64
2022/10/13 04:35:05;;;;;;;51.00;19.45;;;7.90;99.90;;;;;;5049142;28;20120;-65
2022/10/13 04:37:30;;;;;;;49.45;19.50;;;8.00;99.90;;;;;;5044127;28;20051;-64
2022/10/13 04:39:56;;;;;;;46.33;19.05;;;8.10;99.90;;;;;;5035700;28;20033;-64
2022/10/13 04:42:22;;;;;;;45.25;18.45;;;8.20;99.90;;;;;;5039974;28;20041;-64
2022/10/13 04:44:47;;;;;;;41.05;16.23;;;8.30;99.90;;;;;;5050148;28;20147;-63
2022/10/13 04:47:13;;;;;;;44.38;17.23;;;8.30;99.90;;;;;;5048944;28;20055;-62
2022/10/13 04:49:39;;;;;;;36.78;14.77;;;8.40;99.90;;;;;;5039089;28;20036;-64
2022/10/13 04:52:04;;;;;;;34.03;13.93;;;8.40;99.90;;;;;;5036382;28;20039;-64
2022/10/13 04:54:30;;;;;;;33.67;14.05;;;8.30;99.90;;;;;;5041099;28;20511;-64
2022/10/13 04:56:55;;;;;;;28.70;12.73;;;8.40;99.90;;;;;;5056506;28;20029;-64
2022/10/13 04:59:21;;;;;;;31.40;13.60;;;8.40;99.90;;;;;;5046707;28;20138;-65
2022/10/13 05:01:47;;;;;;;30.40;13.70;;;8.40;99.90;;;;;;5058143;28;20036;-64
2022/10/13 05:04:12;;;;;;;30.40;13.68;;;8.30;99.90;;;;;;5066500;28;20568;-64
2022/10/13 05:06:40;;;;;;;31.73;14.25;;;8.30;99.90;;;;;;5048108;28;20032;-65
2022/10/13 05:09:06;;;;;;;32.05;14.13;;;8.30;99.90;;;;;;5047081;28;20032;-62
2022/10/13 05:11:32;;;;;;;34.22;14.27;;;8.40;99.90;;;;;;5045674;28;20033;-64
2022/10/13 05:13:58;;;;;;;31.23;13.13;;;8.40;99.90;;;;;;5067421;28;20039;-64
2022/10/13 05:16:24;;;;;;;31.05;14.18;;;8.40;99.90;;;;;;5060599;28;20025;-64
2022/10/13 05:18:52;;;;;;;31.90;13.15;;;8.40;99.90;;;;;;5047599;28;20036;-64
2022/10/13 05:21:24;;;;;;;36.03;14.40;;;8.40;99.90;;;;;;5048115;28;20049;-65
2022/10/13 05:23:53;;;;;;;32.80;14.13;;;8.50;99.90;;;;;;5065971;28;20040;-62
2022/10/13 05:26:19;;;;;;;30.65;13.40;;;8.40;99.90;;;;;;5061401;28;20462;-65
2022/10/13 05:28:45;;;;;;;31.65;14.00;;;8.40;99.90;;;;;;5036445;28;20107;-64
2022/10/13 05:31:17;;;;;;;32.03;13.95;;;8.40;99.90;;;;;;5047223;28;20029;-64
2022/10/13 05:33:44;;;;;;;36.25;14.23;;;8.50;99.90;;;;;;5054310;28;20112;-63
2022/10/13 05:36:16;;;;;;;32.65;13.63;;;8.50;99.90;;;;;;5046085;28;20040;-63
2022/10/13 05:38:42;;;;;;;31.58;13.25;;;8.50;99.90;;;;;;5044517;28;20025;-63
2022/10/13 05:41:10;;;;;;;28.02;13.40;;;8.50;99.90;;;;;;5048631;28;20037;-64
2022/10/13 05:43:38;;;;;;;29.40;14.77;;;8.50;99.90;;;;;;5047977;28;20044;-63
2022/10/13 05:46:04;;;;;;;33.65;14.27;;;8.60;99.90;;;;;;5049181;28;20029;-63
2022/10/13 05:48:30;;;;;;;33.33;15.05;;;8.60;99.90;;;;;;5048178;28;20492;-64
2022/10/13 05:50:58;;;;;;;42.58;18.08;;;8.70;99.90;;;;;;5047497;28;20033;-63
2022/10/13 05:53:27;;;;;;;42.63;19.38;;;8.80;99.90;;;;;;5045167;28;20037;-67
2022/10/13 05:55:57;;;;;;;44.50;19.02;;;8.90;99.90;;;;;;5047130;28;20522;-63
2022/10/13 05:58:23;;;;;;;43.90;19.02;;;9.10;99.90;;;;;;5046935;28;20025;-66
2022/10/13 06:00:50;;;;;;;40.10;18.42;;;9.10;99.90;;;;;;5036352;28;20047;-62
2022/10/13 06:03:21;;;;;;;41.92;18.15;;;9.20;99.90;;;;;;5040802;28;20043;-64
2022/10/13 06:05:47;;;;;;;46.60;19.77;;;9.30;99.90;;;;;;5041727;28;20041;-64
2022/10/13 06:08:14;;;;;;;50.97;20.58;;;9.40;99.90;;;;;;5042281;28;20052;-63
2022/10/13 06:10:41;;;;;;;46.80;20.27;;;9.50;99.90;;;;;;5048039;28;20047;-62
2022/10/13 06:13:07;;;;;;;45.75;20.35;;;9.60;99.90;;;;;;5042421;28;20178;-66
2022/10/13 06:15:33;;;;;;;48.45;21.48;;;9.70;99.90;;;;;;5034483;28;20037;-62
2022/10/13 06:17:59;;;;;;;43.17;19.27;;;9.80;99.90;;;;;;5048393;28;20021;-61
2022/10/13 06:20:26;;;;;;;39.67;19.15;;;9.90;99.90;;;;;;5051643;28;20036;-67
2022/10/13 06:22:53;;;;;;;45.85;20.33;;;9.80;99.90;;;;;;5047267;28;20065;-64
2022/10/13 06:25:19;;;;;;;44.85;18.55;;;9.80;99.90;;;;;;5054025;28;20036;-64
2022/10/13 06:27:45;;;;;;;56.40;20.52;;;9.90;99.90;;;;;;5048621;28;20040;-63
2022/10/13 06:30:11;;;;;;;48.05;19.48;;;10.00;99.90;;;;;;5055733;28;20033;-63
2022/10/13 06:32:36;;;;;;;44.20;18.95;;;9.90;99.90;;;;;;5038056;28;20045;-63
2022/10/13 06:35:03;;;;;;;38.20;18.10;;;9.70;99.90;;;;;;5033211;28;20033;-63
2022/10/13 06:37:29;;;;;;;44.03;18.88;;;9.60;99.90;;;;;;5048248;28;20133;-67
2022/10/13 06:39:55;;;;;;;46.05;19.17;;;9.60;99.90;;;;;;5045038;28;20108;-63
2022/10/13 06:42:21;;;;;;;38.78;18.55;;;9.80;99.90;;;;;;5039244;28;20032;-64
2022/10/13 06:44:47;;;;;;;39.58;18.30;;;9.80;99.90;;;;;;5044516;28;20489;-64
2022/10/13 06:47:13;;;;;;;42.83;18.85;;;9.80;99.90;;;;;;5039347;28;20044;-66
2022/10/13 06:49:39;;;;;;;47.70;21.33;;;9.90;99.90;;;;;;5040048;28;20040;-64
2022/10/13 06:52:05;;;;;;;50.53;24.50;;;10.00;99.90;;;;;;5043792;28;20033;-66
2022/10/13 06:54:30;;;;;;;59.08;26.38;;;10.20;99.90;;;;;;5044185;28;20061;-64
2022/10/13 06:56:56;;;;;;;51.15;21.15;;;10.30;99.90;;;;;;5045355;28;20124;-65
2022/10/13 06:59:22;;;;;;;43.60;19.42;;;10.40;99.90;;;;;;5047439;28;20047;-65
2022/10/13 07:01:49;;;;;;;39.97;18.42;;;10.60;99.90;;;;;;5037913;28;20353;-64
2022/10/13 07:04:15;;;;;;;46.22;18.90;;;10.70;99.90;;;;;;5038887;28;20033;-67
2022/10/13 07:06:40;;;;;;;48.05;18.70;;;10.80;99.90;;;;;;5045135;28;20079;-64
2022/10/13 07:09:08;;;;;;;39.55;18.73;;;10.80;99.90;;;;;;5050141;28;20111;-65
2022/10/13 07:11:34;;;;;;;42.88;18.80;;;10.70;99.90;;;;;;5050876;28;20033;-63
2022/10/13 07:14:00;;;;;;;41.42;18.85;;;10.70;99.90;;;;;;5040096;28;20413;-64
2022/10/13 07:16:26;;;;;;;39.13;17.50;;;10.70;99.90;;;;;;5042969;28;20044;-65
2022/10/13 07:18:51;;;;;;;37.42;17.77;;;10.60;99.90;;;;;;5033201;28;20068;-64
2022/10/13 07:21:17;;;;;;;33.90;17.17;;;10.50;99.90;;;;;;5035872;28;20083;-64
2022/10/13 07:23:43;;;;;;;40.25;18.50;;;10.60;99.90;;;;;;5038908;28;20453;-64
2022/10/13 07:26:12;;;;;;;39.28;18.40;;;10.70;99.90;;;;;;5038364;28;20065;-64
2022/10/13 07:28:38;;;;;;;37.33;18.25;;;10.70;99.90;;;;;;5039967;28;20035;-65
2022/10/13 07:31:10;;;;;;;42.25;18.77;;;10.90;99.90;;;;;;5049008;28;20037;-63
2022/10/13 07:33:36;;;;;;;39.92;18.58;;;11.00;99.90;;;;;;5046207;28;20492;-64
2022/10/13 07:36:02;;;;;;;37.85;17.58;;;11.20;99.90;;;;;;5044041;28;20037;-64
2022/10/13 07:38:28;;;;;;;40.22;17.95;;;11.10;99.90;;;;;;5044895;28;20539;-67
2022/10/13 07:40:54;;;;;;;34.25;16.73;;;11.20;99.90;;;;;;5051220;28;20029;-63
2022/10/13 07:43:19;;;;;;;42.42;18.45;;;11.30;99.90;;;;;;5050632;28;20155;-64
2022/10/13 07:45:45;;;;;;;43.70;20.90;;;11.40;99.90;;;;;;5050588;28;20060;-65
2022/10/13 07:48:11;;;;;;;39.90;19.48;;;11.50;99.90;;;;;;5051011;28;20028;-64
2022/10/13 07:50:36;;;;;;;47.63;21.48;;;11.60;99.90;;;;;;5049933;28;20036;-64
2022/10/13 07:53:02;;;;;;;47.22;20.92;;;11.70;99.90;;;;;;5051209;28;20036;-63
2022/10/13 07:55:28;;;;;;;41.10;20.17;;;11.70;99.90;;;;;;5050976;28;20025;-67
2022/10/13 07:57:54;;;;;;;40.05;19.95;;;11.80;99.90;;;;;;5050764;28;20029;-64
2022/10/13 08:00:19;;;;;;;46.42;20.88;;;11.90;99.90;;;;;;5051138;28;20116;-64
2022/10/13 08:02:49;;;;;;;41.60;20.38;;;12.00;99.90;;;;;;5050342;28;20025;-64
2022/10/13 08:05:15;;;;;;;42.40;19.23;;;12.20;99.90;;;;;;5050353;28;20029;-65
2022/10/13 08:07:40;;;;;;;37.42;17.40;;;12.40;99.90;;;;;;5049552;28;20029;-63
2022/10/13 08:10:07;;;;;;;35.47;16.25;;;12.50;99.90;;;;;;5051098;28;20029;-63
2022/10/13 08:12:35;;;;;;;34.63;16.17;;;12.60;99.90;;;;;;5050169;28;20080;-63
2022/10/13 08:15:01;;;;;;;34.72;15.80;;;12.70;99.90;;;;;;5050096;28;20048;-64
2022/10/13 08:17:26;;;;;;;32.55;16.30;;;12.80;99.90;;;;;;5050521;28;20032;-65
2022/10/13 08:19:52;;;;;;;33.08;16.45;;;12.90;99.90;;;;;;5049568;28;20033;-64
2022/10/13 08:22:18;;;;;;;34.72;17.48;;;12.90;99.90;;;;;;5044845;28;20056;-63
2022/10/13 08:24:44;;;;;;;37.53;17.98;;;12.90;99.90;;;;;;5031199;28;20152;-64
2022/10/13 08:27:19;;;;;;;39.63;18.77;;;13.00;99.90;;;;;;5038659;28;20064;-64
2022/10/13 08:29:45;;;;;;;36.28;18.38;;;12.80;99.90;;;;;;5031885;28;20040;-62
2022/10/13 08:32:11;;;;;;;44.05;17.45;;;12.80;99.90;;;;;;5041703;28;20037;-64
2022/10/13 08:34:37;;;;;;;37.15;17.90;;;12.90;99.90;;;;;;5037218;28;20478;-63
2022/10/13 08:37:02;;;;;;;41.88;18.40;;;12.90;99.90;;;;;;5035118;28;20033;-63
2022/10/13 08:39:28;;;;;;;37.42;17.80;;;13.00;99.90;;;;;;5047268;28;20027;-64
2022/10/13 08:41:56;;;;;;;35.45;17.15;;;13.10;99.90;;;;;;5043355;28;20064;-65
2022/10/13 08:44:39;;;;;;;34.22;15.73;;;13.20;99.90;;;;;;5050183;28;20041;-63
2022/10/13 08:47:19;;;;;;;32.72;15.55;;;13.30;99.90;;;;;;5036811;28;20106;-66
2022/10/13 08:49:45;;;;;;;34.60;15.52;;;13.50;99.90;;;;;;5029445;28;20052;-65
2022/10/13 08:52:22;;;;;;;32.20;15.48;;;13.60;99.90;;;;;;5044555;28;20118;-62
2022/10/13 08:54:49;;;;;;;37.22;15.80;;;13.80;99.90;;;;;;5049390;28;20037;-64
2022/10/13 08:57:15;;;;;;;37.60;14.95;;;14.10;99.90;;;;;;5044228;28;20167;-64
2022/10/13 08:59:41;;;;;;;48.35;15.23;;;14.40;99.90;;;;;;5043260;28;20131;-65
2022/10/13 09:02:28;;;;;;;30.23;13.90;;;14.60;99.90;;;;;;5038541;28;20489;-64
2022/10/13 09:04:56;;;;;;;28.83;13.93;;;14.70;99.90;;;;;;5040994;28;20054;-64
2022/10/13 09:07:35;;;;;;;29.23;14.82;;;14.80;99.90;;;;;;5039247;28;20083;-64
2022/10/13 09:10:02;;;;;;;29.63;14.77;;;14.80;99.90;;;;;;5041427;28;20029;-64
2022/10/13 09:12:28;;;;;;;34.20;14.07;;;14.70;99.90;;;;;;5047640;28;20112;-63
2022/10/13 09:15:05;;;;;;;31.88;15.25;;;14.60;99.90;;;;;;5049392;28;20565;-64
2022/10/13 09:17:31;;;;;;;33.92;14.60;;;14.50;99.90;;;;;;5042565;28;20060;-62
2022/10/13 09:19:59;;;;;;;29.00;13.85;;;14.50;99.90;;;;;;5049624;28;20025;-64
2022/10/13 09:22:39;;;;;;;26.15;13.55;;;14.50;99.90;;;;;;5049643;28;20049;-63
2022/10/13 09:25:10;;;;;;;34.45;13.82;;;14.40;99.90;;;;;;5047376;28;20083;-62
2022/10/13 09:27:56;;;;;;;26.73;13.38;;;14.40;99.90;;;;;;5037464;28;20436;-65
2022/10/13 09:30:33;;;;;;;27.92;14.18;;;14.60;99.90;;;;;;5048256;28;20028;-64
2022/10/13 09:33:08;;;;;;;34.35;14.05;;;14.70;99.90;;;;;;5047829;28;20114;-63
2022/10/13 09:35:35;;;;;;;30.85;14.30;;;14.70;99.90;;;;;;5045433;28;20527;-68
2022/10/13 09:38:05;;;;;;;32.92;14.85;;;14.70;99.90;;;;;;5033688;28;20033;-62
2022/10/13 09:40:32;;;;;;;26.42;13.30;;;14.80;99.90;;;;;;5038961;28;20029;-63
2022/10/13 09:43:00;;;;;;;35.28;13.05;;;14.80;99.90;;;;;;5031382;28;20037;-65
2022/10/13 09:45:28;;;;;;;24.17;12.75;;;14.80;99.90;;;;;;5043798;28;20194;-63
2022/10/13 09:47:58;;;;;;;27.40;12.68;;;14.80;99.90;;;;;;5039173;28;20600;-65
2022/10/13 09:50:26;;;;;;;32.00;12.65;;;14.80;99.90;;;;;;5039200;28;20029;-63
2022/10/13 09:52:55;;;;;;;29.60;13.23;;;14.80;99.90;;;;;;5044702;28;20037;-62
2022/10/13 09:55:41;;;;;;;29.38;12.75;;;14.80;99.90;;;;;;5046896;28;20043;-64
2022/10/13 09:58:23;;;;;;;24.55;12.95;;;14.80;99.90;;;;;;5039886;28;20043;-64
2022/10/13 10:00:51;;;;;;;27.27;13.13;;;14.90;99.90;;;;;;5046061;28;20025;-63
2022/10/13 10:03:31;;;;;;;26.60;13.07;;;15.00;99.90;;;;;;5043491;28;20047;-63
2022/10/13 10:06:06;;;;;;;24.67;11.63;;;15.10;99.90;;;;;;5044690;28;20112;-65
2022/10/13 10:08:50;;;;;;;31.17;13.85;;;15.20;99.90;;;;;;5034942;28;20529;-63
2022/10/13 10:11:29;;;;;;;26.17;13.48;;;15.30;99.90;;;;;;5048904;28;20034;-63
2022/10/13 10:13:56;;;;;;;29.92;13.32;;;15.50;99.90;;;;;;5034958;28;20030;-65
2022/10/13 10:16:34;;;;;;;28.05;12.63;;;15.60;99.90;;;;;;5032753;28;20041;-63
2022/10/13 10:19:02;;;;;;;29.75;12.02;;;15.70;99.90;;;;;;5038311;28;20025;-63
2022/10/13 10:22:06;;;;;;;27.30;13.15;;;15.70;99.90;;;;;;5052953;28;20080;-64
2022/10/13 10:24:49;;;;;;;27.05;11.98;;;15.80;99.90;;;;;;5048709;28;20135;-65
2022/10/13 10:27:22;;;;;;;31.75;13.27;;;15.80;99.90;;;;;;5067581;28;20035;-63
2022/10/13 10:29:59;;;;;;;32.22;14.13;;;15.70;99.90;;;;;;5071613;28;20020;-64
2022/10/13 10:32:45;;;;;;;32.17;14.35;;;15.60;99.90;;;;;;5056713;28;20432;-64
2022/10/13 10:35:26;;;;;;;39.22;14.57;;;15.50;99.90;;;;;;5034639;28;20034;-64
2022/10/13 10:38:32;;;;;;;35.47;14.02;;;15.50;99.90;;;;;;5041220;28;20033;-63
2022/10/13 10:41:35;;;;;;;31.95;13.00;;;15.60;99.90;;;;;;5041509;28;20618;-64
2022/10/13 10:44:09;;;;;;;33.85;13.98;;;15.60;99.90;;;;;;5049911;28;20039;-63
2022/10/13 10:46:39;;;;;;;31.27;13.98;;;15.60;99.90;;;;;;5050296;28;20060;-65
2022/10/13 10:49:20;;;;;;;38.55;16.48;;;15.60;99.90;;;;;;5048141;28;20037;-64
2022/10/13 10:51:46;;;;;;;35.35;15.38;;;15.50;99.90;;;;;;5031404;28;20041;-64
2022/10/13 10:54:43;;;;;;;36.38;15.05;;;15.50;99.90;;;;;;5035007;28;20041;-62
2022/10/13 10:57:25;;;;;;;30.17;14.38;;;15.40;99.90;;;;;;5048182;28;20473;-64
2022/10/13 11:00:03;;;;;;;32.90;14.05;;;15.40;99.90;;;;;;5047676;28;20377;-64
2022/10/13 11:02:47;;;;;;;36.47;13.95;;;15.40;99.90;;;;;;5043252;28;20056;-62
2022/10/13 11:05:14;;;;;;;38.90;15.70;;;15.40;99.90;;;;;;5048864;28;20472;-65
2022/10/13 11:07:42;;;;;;;31.42;14.00;;;15.40;99.90;;;;;;5048623;28;20037;-67
2022/10/13 11:10:16;;;;;;;38.20;14.10;;;15.40;99.90;;;;;;5050303;28;20059;-65
2022/10/13 11:12:45;;;;;;;31.70;14.35;;;15.50;99.90;;;;;;5051098;28;20029;-68
2022/10/13 11:15:20;;;;;;;30.67;14.80;;;15.60;99.90;;;;;;5058698;28;20037;-64
2022/10/13 11:17:45;;;;;;;32.92;13.77;;;15.70;99.90;;;;;;5029871;28;20029;-67
2022/10/13 11:20:20;;;;;;;33.28;14.73;;;15.60;99.90;;;;;;5035613;28;20041;-63
2022/10/13 11:22:58;;;;;;;36.65;13.63;;;15.70;99.90;;;;;;5030427;28;20050;-66
2022/10/13 11:25:41;;;;;;;28.02;13.32;;;15.70;99.90;;;;;;5062055;28;20036;-65
2022/10/13 11:28:22;;;;;;;30.45;12.60;;;15.80;99.90;;;;;;5051092;28;20041;-64
2022/10/13 11:31:06;;;;;;;30.67;14.30;;;15.80;99.90;;;;;;5050013;28;20029;-64
2022/10/13 11:33:38;;;;;;;29.02;12.77;;;15.70;99.90;;;;;;5052103;28;20036;-65
2022/10/13 11:36:40;;;;;;;26.85;12.38;;;15.80;99.90;;;;;;5055816;28;20132;-64
2022/10/13 11:39:39;;;;;;;24.50;12.77;;;15.80;99.90;;;;;;5047365;28;20044;-63
2022/10/13 11:42:10;;;;;;;34.55;12.20;;;15.80;99.90;;;;;;5041962;28;20102;-64
2022/10/13 11:44:53;;;;;;;30.73;12.20;;;15.80;99.90;;;;;;5053830;28;20029;-65
2022/10/13 11:47:38;;;;;;;22.20;10.95;;;15.70;99.90;;;;;;5053619;28;20029;-63
2022/10/13 11:50:31;;;;;;;29.73;12.13;;;15.70;99.90;;;;;;5045139;28;20040;-62
2022/10/13 11:53:13;;;;;;;29.23;12.18;;;15.70;99.90;;;;;;5043967;28;20784;-65
2022/10/13 11:55:56;;;;;;;34.42;12.15;;;15.60;99.90;;;;;;5055127;28;20025;-64
2022/10/13 11:58:24;;;;;;;25.58;11.63;;;15.40;99.90;;;;;;5063078;28;20033;-64
2022/10/13 12:00:53;;;;;;;23.92;11.60;;;15.40;99.90;;;;;;5052486;28;20028;-65
2022/10/13 12:03:21;;;;;;;32.33;12.23;;;15.40;99.90;;;;;;5046523;28;20405;-65
2022/10/13 12:05:48;;;;;;;28.67;12.55;;;15.40;99.90;;;;;;5044608;28;20485;-62
2022/10/13 12:08:14;;;;;;;30.48;12.65;;;15.40;99.90;;;;;;5049313;28;20086;-62
2022/10/13 12:10:40;;;;;;;32.00;12.70;;;15.50;99.90;;;;;;5037427;28;20027;-65
2022/10/13 12:13:06;;;;;;;25.92;12.18;;;15.50;99.90;;;;;;5048592;28;20147;-65
2022/10/13 12:15:36;;;;;;;25.55;12.25;;;15.60;99.90;;;;;;5042252;28;20108;-64
2022/10/13 12:18:19;;;;;;;31.73;12.32;;;15.70;99.90;;;;;;5034996;28;20228;-62
2022/10/13 12:20:54;;;;;;;26.98;12.45;;;15.70;99.90;;;;;;5044688;28;20042;-68
2022/10/13 12:23:20;;;;;;;32.90;11.50;;;15.70;99.90;;;;;;5048159;28;20064;-66
2022/10/13 12:25:47;;;;;;;25.38;11.25;;;15.80;99.90;;;;;;5039427;28;20037;-68
2022/10/13 12:28:19;;;;;;;23.70;12.13;;;15.70;99.90;;;;;;5043867;28;20041;-62
2022/10/13 12:30:54;;;;;;;32.65;12.35;;;15.70;99.90;;;;;;5049461;28;20040;-66
2022/10/13 12:33:31;;;;;;;26.33;11.15;;;15.80;99.90;;;;;;5051490;28;20036;-68
2022/10/13 12:36:17;;;;;;;28.85;11.05;;;15.80;99.90;;;;;;5045036;28;20033;-62
2022/10/13 12:38:47;;;;;;;27.13;11.27;;;15.70;99.90;;;;;;5045568;28;20124;-63
2022/10/13 12:41:18;;;;;;;32.88;12.15;;;15.70;99.90;;;;;;5048533;28;20473;-65
2022/10/13 12:43:45;;;;;;;33.25;11.95;;;15.80;99.90;;;;;;5048448;28;20041;-65
2022/10/13 12:46:10;;;;;;;22.98;11.27;;;15.70;99.90;;;;;;5046395;28;20042;-64
2022/10/13 12:48:37;;;;;;;26.77;11.45;;;15.60;99.90;;;;;;5062282;28;20124;-64